sensor_id;sensor_type;location;lat;lon;timestamp;pressure;altitude;pressure_sealevel;temperature;humidity
78890;BME280;68279;48.964;14.502;2023-11-21T00:00:00;96488.94;;;5.43;96.27
78890;BME280;68279;48.964;14.502;2023-11-21T00:02:26;96482.53;;;5.38;96.57
78890;BME280;68279;48.964;14.502;2023-11-21T00:04:53;96487.63;;;5.40;96.32
78890;BME280;68279;48.964;14.502;2023-11-21T00:07:19;96482.81;;;5.37;96.46
78890;BME280;68279;48.964;14.502;2023-11-21T00:09:46;96479.91;;;5.38;96.26
78890;BME280;68279;48.964;14.502;2023-11-21T00:12:12;96484.16;;;5.39;96.22
78890;BME280;68279;48.964;14.502;2023-11-21T00:14:39;96483.63;;;5.43;96.04
78890;BME280;68279;48.964;14.502;2023-11-21T00:17:05;96483.38;;;5.39;96.09
78890;BME280;68279;48.964;14.502;2023-11-21T00:19:31;96474.09;;;5.47;96.05
78890;BME280;68279;48.964;14.502;2023-11-21T00:21:57;96476.78;;;5.57;95.66
78890;BME280;68279;48.964;14.502;2023-11-21T00:24:24;96477.81;;;5.56;95.30
78890;BME280;68279;48.964;14.502;2023-11-21T00:26:50;96473.28;;;5.46;95.56
78890;BME280;68279;48.964;14.502;2023-11-21T00:29:16;96481.78;;;5.43;95.96
78890;BME280;68279;48.964;14.502;2023-11-21T00:31:44;96479.16;;;5.48;96.05
78890;BME280;68279;48.964;14.502;2023-11-21T00:34:11;96474.31;;;5.35;96.25
78890;BME280;68279;48.964;14.502;2023-11-21T00:36:37;96469.06;;;5.45;96.11
78890;BME280;68279;48.964;14.502;2023-11-21T00:39:03;96468.00;;;5.56;95.31
78890;BME280;68279;48.964;14.502;2023-11-21T00:41:28;96472.22;;;5.47;95.54
78890;BME280;68279;48.964;14.502;2023-11-21T00:43:54;96473.00;;;5.32;96.15
78890;BME280;68279;48.964;14.502;2023-11-21T00:46:20;96473.50;;;5.24;96.54
78890;BME280;68279;48.964;14.502;2023-11-21T00:48:46;96475.31;;;5.19;97.00
78890;BME280;68279;48.964;14.502;2023-11-21T00:51:11;96473.47;;;5.14;97.04
78890;BME280;68279;48.964;14.502;2023-11-21T00:53:37;96477.19;;;5.18;97.26
78890;BME280;68279;48.964;14.502;2023-11-21T00:56:02;96474.56;;;5.23;97.42
78890;BME280;68279;48.964;14.502;2023-11-21T00:58:28;96473.19;;;5.21;97.50
78890;BME280;68279;48.964;14.502;2023-11-21T01:00:54;96472.69;;;5.29;97.08
78890;BME280;68279;48.964;14.502;2023-11-21T01:03:20;96480.91;;;5.27;97.17
78890;BME280;68279;48.964;14.502;2023-11-21T01:05:46;96481.75;;;5.38;97.06
78890;BME280;68279;48.964;14.502;2023-11-21T01:08:11;96474.84;;;5.32;97.73
78890;BME280;68279;48.964;14.502;2023-11-21T01:10:37;96475.91;;;5.36;97.89
78890;BME280;68279;48.964;14.502;2023-11-21T01:13:03;96476.25;;;5.50;97.44
78890;BME280;68279;48.964;14.502;2023-11-21T01:15:35;96470.66;;;5.51;97.07
78890;BME280;68279;48.964;14.502;2023-11-21T01:18:01;96470.63;;;5.46;97.43
78890;BME280;68279;48.964;14.502;2023-11-21T01:20:26;96468.00;;;5.46;97.75
78890;BME280;68279;48.964;14.502;2023-11-21T01:22:53;96466.94;;;5.47;97.60
78890;BME280;68279;48.964;14.502;2023-11-21T01:25:19;96459.50;;;5.44;97.90
78890;BME280;68279;48.964;14.502;2023-11-21T01:27:46;96465.06;;;5.48;98.24
78890;BME280;68279;48.964;14.502;2023-11-21T01:30:12;96458.19;;;5.52;97.99
78890;BME280;68279;48.964;14.502;2023-11-21T01:32:38;96465.38;;;5.51;97.84
78890;BME280;68279;48.964;14.502;2023-11-21T01:35:05;96463.78;;;5.50;98.07
78890;BME280;68279;48.964;14.502;2023-11-21T01:37:32;96459.53;;;5.49;98.61
78890;BME280;68279;48.964;14.502;2023-11-21T01:39:58;96455.81;;;5.55;98.23
78890;BME280;68279;48.964;14.502;2023-11-21T01:42:24;96457.41;;;5.56;98.45
78890;BME280;68279;48.964;14.502;2023-11-21T01:44:50;96453.72;;;5.62;98.31
78890;BME280;68279;48.964;14.502;2023-11-21T01:47:16;96464.84;;;5.54;99.40
78890;BME280;68279;48.964;14.502;2023-11-21T01:49:44;96455.03;;;5.50;99.86
78890;BME280;68279;48.964;14.502;2023-11-21T01:52:11;96450.22;;;5.47;99.83
78890;BME280;68279;48.964;14.502;2023-11-21T01:54:37;96458.19;;;5.47;100.00
78890;BME280;68279;48.964;14.502;2023-11-21T01:57:04;96462.69;;;5.46;100.00
78890;BME280;68279;48.964;14.502;2023-11-21T01:59:36;96466.69;;;5.49;99.98
78890;BME280;68279;48.964;14.502;2023-11-21T02:02:08;96470.94;;;5.55;99.69
78890;BME280;68279;48.964;14.502;2023-11-21T02:04:35;96469.63;;;5.62;99.14
78890;BME280;68279;48.964;14.502;2023-11-21T02:07:02;96466.19;;;5.57;99.64
78890;BME280;68279;48.964;14.502;2023-11-21T02:09:31;96468.81;;;5.52;100.00
78890;BME280;68279;48.964;14.502;2023-11-21T02:12:03;96458.97;;;5.47;100.00
78890;BME280;68279;48.964;14.502;2023-11-21T02:14:30;96451.03;;;5.52;100.00
78890;BME280;68279;48.964;14.502;2023-11-21T02:16:56;96452.91;;;5.62;100.00
78890;BME280;68279;48.964;14.502;2023-11-21T02:19:22;96450.78;;;5.54;100.00
78890;BME280;68279;48.964;14.502;2023-11-21T02:21:51;96447.06;;;5.50;100.00
78890;BME280;68279;48.964;14.502;2023-11-21T02:24:21;96448.91;;;5.39;100.00
78890;BME280;68279;48.964;14.502;2023-11-21T02:26:48;96452.59;;;5.33;100.00
78890;BME280;68279;48.964;14.502;2023-11-21T02:29:14;96449.94;;;5.33;100.00
78890;BME280;68279;48.964;14.502;2023-11-21T02:31:43;96443.00;;;5.22;100.00
78890;BME280;68279;48.964;14.502;2023-11-21T02:34:15;96444.56;;;5.13;100.00
78890;BME280;68279;48.964;14.502;2023-11-21T02:36:43;96441.63;;;5.09;100.00
78890;BME280;68279;48.964;14.502;2023-11-21T02:39:12;96435.78;;;5.07;100.00
78890;BME280;68279;48.964;14.502;2023-11-21T02:41:38;96436.84;;;5.06;100.00
78890;BME280;68279;48.964;14.502;2023-11-21T02:44:05;96443.22;;;5.05;100.00
78890;BME280;68279;48.964;14.502;2023-11-21T02:46:35;96446.09;;;5.03;100.00
78890;BME280;68279;48.964;14.502;2023-11-21T02:49:01;96442.94;;;5.11;100.00
78890;BME280;68279;48.964;14.502;2023-11-21T02:51:28;96438.19;;;5.08;100.00
78890;BME280;68279;48.964;14.502;2023-11-21T02:53:54;96440.84;;;5.14;100.00
78890;BME280;68279;48.964;14.502;2023-11-21T02:56:20;96436.09;;;5.16;100.00
78890;BME280;68279;48.964;14.502;2023-11-21T02:58:45;96437.94;;;5.20;100.00
78890;BME280;68279;48.964;14.502;2023-11-21T03:01:11;96438.75;;;5.21;100.00
78890;BME280;68279;48.964;14.502;2023-11-21T03:03:38;96435.03;;;5.17;100.00
78890;BME280;68279;48.964;14.502;2023-11-21T03:06:08;96440.84;;;5.14;100.00
78890;BME280;68279;48.964;14.502;2023-11-21T03:08:34;96435.50;;;5.03;100.00
78890;BME280;68279;48.964;14.502;2023-11-21T03:11:01;96431.50;;;4.96;100.00
78890;BME280;68279;48.964;14.502;2023-11-21T03:13:29;96436.41;;;4.72;100.00
78890;BME280;68279;48.964;14.502;2023-11-21T03:15:54;96438.97;;;4.57;100.00
78890;BME280;68279;48.964;14.502;2023-11-21T03:18:21;96435.44;;;4.41;100.00
78890;BME280;68279;48.964;14.502;2023-11-21T03:20:48;96433.75;;;4.24;100.00
78890;BME280;68279;48.964;14.502;2023-11-21T03:23:14;96432.63;;;4.15;100.00
78890;BME280;68279;48.964;14.502;2023-11-21T03:25:40;96435.97;;;4.06;100.00
78890;BME280;68279;48.964;14.502;2023-11-21T03:28:06;96437.50;;;3.96;100.00
78890;BME280;68279;48.964;14.502;2023-11-21T03:30:33;96430.59;;;3.95;100.00
78890;BME280;68279;48.964;14.502;2023-11-21T03:32:59;96427.97;;;3.95;100.00
78890;BME280;68279;48.964;14.502;2023-11-21T03:35:25;96427.94;;;3.90;100.00
78890;BME280;68279;48.964;14.502;2023-11-21T03:37:51;96425.50;;;3.84;100.00
78890;BME280;68279;48.964;14.502;2023-11-21T03:40:17;96421.44;;;3.71;100.00
78890;BME280;68279;48.964;14.502;2023-11-21T03:42:42;96419.97;;;3.58;100.00
78890;BME280;68279;48.964;14.502;2023-11-21T03:45:08;96421.47;;;3.49;100.00
78890;BME280;68279;48.964;14.502;2023-11-21T03:47:35;96414.00;;;3.41;100.00
78890;BME280;68279;48.964;14.502;2023-11-21T03:50:01;96415.75;;;3.30;100.00
78890;BME280;68279;48.964;14.502;2023-11-21T03:52:26;96420.47;;;3.28;100.00
78890;BME280;68279;48.964;14.502;2023-11-21T03:54:53;96421.22;;;3.24;100.00
78890;BME280;68279;48.964;14.502;2023-11-21T03:57:21;96421.91;;;3.41;100.00
78890;BME280;68279;48.964;14.502;2023-11-21T03:59:46;96426.47;;;3.46;100.00
78890;BME280;68279;48.964;14.502;2023-11-21T04:02:12;96425.31;;;3.36;100.00
78890;BME280;68279;48.964;14.502;2023-11-21T04:04:38;96427.28;;;3.24;100.00
78890;BME280;68279;48.964;14.502;2023-11-21T04:07:04;96430.94;;;3.18;100.00
78890;BME280;68279;48.964;14.502;2023-11-21T04:09:30;96426.38;;;3.13;100.00
78890;BME280;68279;48.964;14.502;2023-11-21T04:11:56;96432.22;;;3.16;100.00
78890;BME280;68279;48.964;14.502;2023-11-21T04:14:22;96435.84;;;3.31;100.00
78890;BME280;68279;48.964;14.502;2023-11-21T04:16:48;96430.63;;;3.36;100.00
78890;BME280;68279;48.964;14.502;2023-11-21T04:19:14;96432.94;;;3.60;100.00
78890;BME280;68279;48.964;14.502;2023-11-21T04:21:41;96431.09;;;3.60;100.00
78890;BME280;68279;48.964;14.502;2023-11-21T04:24:07;96439.59;;;3.62;100.00
78890;BME280;68279;48.964;14.502;2023-11-21T04:26:33;96432.53;;;3.73;100.00
78890;BME280;68279;48.964;14.502;2023-11-21T04:28:58;96431.50;;;3.74;100.00
78890;BME280;68279;48.964;14.502;2023-11-21T04:31:24;96428.31;;;3.72;100.00
78890;BME280;68279;48.964;14.502;2023-11-21T04:33:49;96430.84;;;3.62;100.00
78890;BME280;68279;48.964;14.502;2023-11-21T04:36:15;96431.25;;;3.49;100.00
78890;BME280;68279;48.964;14.502;2023-11-21T04:38:41;96436.13;;;3.35;100.00
78890;BME280;68279;48.964;14.502;2023-11-21T04:41:07;96436.81;;;3.25;100.00
78890;BME280;68279;48.964;14.502;2023-11-21T04:43:33;96437.63;;;3.26;100.00
78890;BME280;68279;48.964;14.502;2023-11-21T04:45:58;96430.56;;;3.31;100.00
78890;BME280;68279;48.964;14.502;2023-11-21T04:48:24;96431.25;;;3.49;100.00
78890;BME280;68279;48.964;14.502;2023-11-21T04:50:50;96433.63;;;3.77;100.00
78890;BME280;68279;48.964;14.502;2023-11-21T04:53:17;96431.16;;;3.97;100.00
78890;BME280;68279;48.964;14.502;2023-11-21T04:55:43;96439.22;;;4.13;100.00
78890;BME280;68279;48.964;14.502;2023-11-21T04:58:09;96433.50;;;4.26;100.00
78890;BME280;68279;48.964;14.502;2023-11-21T05:00:37;96436.72;;;4.33;100.00
78890;BME280;68279;48.964;14.502;2023-11-21T05:03:24;96437.06;;;4.42;100.00
78890;BME280;68279;48.964;14.502;2023-11-21T05:05:50;96437.91;;;4.52;100.00
78890;BME280;68279;48.964;14.502;2023-11-21T05:08:15;96437.75;;;4.32;100.00
78890;BME280;68279;48.964;14.502;2023-11-21T05:10:41;96443.50;;;4.19;100.00
78890;BME280;68279;48.964;14.502;2023-11-21T05:13:07;96439.72;;;4.10;100.00
78890;BME280;68279;48.964;14.502;2023-11-21T05:15:36;96442.63;;;4.08;100.00
78890;BME280;68279;48.964;14.502;2023-11-21T05:18:01;96436.09;;;4.21;100.00
78890;BME280;68279;48.964;14.502;2023-11-21T05:20:27;96440.88;;;4.24;100.00
78890;BME280;68279;48.964;14.502;2023-11-21T05:22:53;96443.56;;;4.29;100.00
78890;BME280;68279;48.964;14.502;2023-11-21T05:25:18;96443.06;;;4.32;100.00
78890;BME280;68279;48.964;14.502;2023-11-21T05:27:45;96443.84;;;4.33;100.00
78890;BME280;68279;48.964;14.502;2023-11-21T05:30:11;96445.75;;;4.37;100.00
78890;BME280;68279;48.964;14.502;2023-11-21T05:32:38;96443.91;;;4.38;100.00
78890;BME280;68279;48.964;14.502;2023-11-21T05:35:04;96446.00;;;4.36;100.00
78890;BME280;68279;48.964;14.502;2023-11-21T05:37:35;96441.72;;;4.30;100.00
78890;BME280;68279;48.964;14.502;2023-11-21T05:40:01;96442.03;;;4.33;100.00
78890;BME280;68279;48.964;14.502;2023-11-21T05:42:31;96446.25;;;4.34;100.00
78890;BME280;68279;48.964;14.502;2023-11-21T05:44:57;96449.97;;;4.38;100.00
78890;BME280;68279;48.964;14.502;2023-11-21T05:47:24;96449.72;;;4.35;100.00
78890;BME280;68279;48.964;14.502;2023-11-21T05:49:51;96452.75;;;4.16;100.00
78890;BME280;68279;48.964;14.502;2023-11-21T05:52:17;96450.56;;;4.08;100.00
78890;BME280;68279;48.964;14.502;2023-11-21T05:54:43;96446.34;;;4.07;100.00
78890;BME280;68279;48.964;14.502;2023-11-21T05:57:09;96458.25;;;4.10;100.00
78890;BME280;68279;48.964;14.502;2023-11-21T05:59:34;96469.88;;;4.09;100.00
78890;BME280;68279;48.964;14.502;2023-11-21T06:02:00;96464.88;;;4.12;100.00
78890;BME280;68279;48.964;14.502;2023-11-21T06:04:27;96471.75;;;4.13;100.00
78890;BME280;68279;48.964;14.502;2023-11-21T06:06:53;96474.41;;;4.13;100.00
78890;BME280;68279;48.964;14.502;2023-11-21T06:09:19;96469.38;;;4.12;100.00
78890;BME280;68279;48.964;14.502;2023-11-21T06:11:46;96472.22;;;4.05;100.00
78890;BME280;68279;48.964;14.502;2023-11-21T06:14:11;96478.78;;;3.97;100.00
78890;BME280;68279;48.964;14.502;2023-11-21T06:16:37;96480.84;;;3.90;100.00
78890;BME280;68279;48.964;14.502;2023-11-21T06:19:03;96480.25;;;3.83;100.00
78890;BME280;68279;48.964;14.502;2023-11-21T06:21:28;96482.88;;;3.83;100.00
78890;BME280;68279;48.964;14.502;2023-11-21T06:23:55;96482.25;;;3.71;100.00
78890;BME280;68279;48.964;14.502;2023-11-21T06:26:22;96485.19;;;3.75;100.00
78890;BME280;68279;48.964;14.502;2023-11-21T06:28:48;96489.72;;;3.79;100.00
78890;BME280;68279;48.964;14.502;2023-11-21T06:31:16;96491.56;;;3.79;100.00
78890;BME280;68279;48.964;14.502;2023-11-21T06:33:42;96494.19;;;3.79;100.00
78890;BME280;68279;48.964;14.502;2023-11-21T06:36:08;96492.13;;;3.81;100.00
78890;BME280;68279;48.964;14.502;2023-11-21T06:38:37;96493.16;;;3.80;100.00
78890;BME280;68279;48.964;14.502;2023-11-21T06:41:02;96501.44;;;3.88;100.00
78890;BME280;68279;48.964;14.502;2023-11-21T06:43:29;96507.66;;;3.99;100.00
78890;BME280;68279;48.964;14.502;2023-11-21T06:45:57;96504.56;;;4.12;100.00
78890;BME280;68279;48.964;14.502;2023-11-21T06:48:22;96506.97;;;4.14;100.00
78890;BME280;68279;48.964;14.502;2023-11-21T06:50:48;96513.66;;;4.21;100.00
78890;BME280;68279;48.964;14.502;2023-11-21T06:53:14;96508.88;;;4.23;100.00
78890;BME280;68279;48.964;14.502;2023-11-21T06:55:40;96521.00;;;4.46;100.00
78890;BME280;68279;48.964;14.502;2023-11-21T06:58:05;96511.81;;;4.59;100.00
78890;BME280;68279;48.964;14.502;2023-11-21T07:00:31;96512.66;;;4.65;100.00
78890;BME280;68279;48.964;14.502;2023-11-21T07:02:56;96522.25;;;4.71;100.00
78890;BME280;68279;48.964;14.502;2023-11-21T07:05:22;96522.03;;;4.77;100.00
78890;BME280;68279;48.964;14.502;2023-11-21T07:07:49;96529.03;;;4.99;100.00
78890;BME280;68279;48.964;14.502;2023-11-21T07:10:14;96522.94;;;5.03;100.00
78890;BME280;68279;48.964;14.502;2023-11-21T07:12:40;96526.97;;;5.06;100.00
78890;BME280;68279;48.964;14.502;2023-11-21T07:15:07;96525.69;;;5.14;100.00
78890;BME280;68279;48.964;14.502;2023-11-21T07:17:35;96534.13;;;5.05;100.00
78890;BME280;68279;48.964;14.502;2023-11-21T07:20:02;96539.16;;;5.07;100.00
78890;BME280;68279;48.964;14.502;2023-11-21T07:22:28;96539.47;;;5.16;100.00
78890;BME280;68279;48.964;14.502;2023-11-21T07:24:55;96547.50;;;5.31;100.00
78890;BME280;68279;48.964;14.502;2023-11-21T07:27:22;96542.66;;;5.18;100.00
78890;BME280;68279;48.964;14.502;2023-11-21T07:29:47;96539.94;;;5.07;100.00
78890;BME280;68279;48.964;14.502;2023-11-21T07:32:14;96544.44;;;5.07;100.00
78890;BME280;68279;48.964;14.502;2023-11-21T07:34:40;96552.75;;;5.26;100.00
78890;BME280;68279;48.964;14.502;2023-11-21T07:37:08;96551.03;;;5.52;100.00
78890;BME280;68279;48.964;14.502;2023-11-21T07:39:35;96550.22;;;5.51;100.00
78890;BME280;68279;48.964;14.502;2023-11-21T07:42:07;96558.78;;;5.68;100.00
78890;BME280;68279;48.964;14.502;2023-11-21T07:44:32;96564.03;;;5.53;100.00
78890;BME280;68279;48.964;14.502;2023-11-21T07:46:58;96569.38;;;5.58;100.00
78890;BME280;68279;48.964;14.502;2023-11-21T07:49:24;96561.97;;;5.65;100.00
78890;BME280;68279;48.964;14.502;2023-11-21T07:51:50;96565.66;;;5.64;100.00
78890;BME280;68279;48.964;14.502;2023-11-21T07:54:16;96562.19;;;5.59;100.00
78890;BME280;68279;48.964;14.502;2023-11-21T07:56:42;96562.28;;;5.79;100.00
78890;BME280;68279;48.964;14.502;2023-11-21T07:59:08;96566.81;;;5.89;100.00
78890;BME280;68279;48.964;14.502;2023-11-21T08:01:33;96565.47;;;5.86;100.00
78890;BME280;68279;48.964;14.502;2023-11-21T08:03:59;96565.69;;;5.69;99.89
78890;BME280;68279;48.964;14.502;2023-11-21T08:06:31;96567.00;;;5.67;100.00
78890;BME280;68279;48.964;14.502;2023-11-21T08:08:58;96571.28;;;5.78;100.00
78890;BME280;68279;48.964;14.502;2023-11-21T08:11:24;96565.44;;;5.81;99.49
78890;BME280;68279;48.964;14.502;2023-11-21T08:13:50;96569.38;;;5.63;99.87
78890;BME280;68279;48.964;14.502;2023-11-21T08:16:15;96571.72;;;5.50;99.66
78890;BME280;68279;48.964;14.502;2023-11-21T08:18:42;96569.63;;;5.57;100.00
78890;BME280;68279;48.964;14.502;2023-11-21T08:21:07;96563.25;;;5.58;100.00
78890;BME280;68279;48.964;14.502;2023-11-21T08:23:34;96565.44;;;5.76;100.00
78890;BME280;68279;48.964;14.502;2023-11-21T08:25:59;96562.28;;;5.79;99.66
78890;BME280;68279;48.964;14.502;2023-11-21T08:28:25;96563.16;;;6.05;100.00
78890;BME280;68279;48.964;14.502;2023-11-21T08:30:53;96564.22;;;6.04;97.73
78890;BME280;68279;48.964;14.502;2023-11-21T08:33:19;96572.22;;;6.24;98.60
78890;BME280;68279;48.964;14.502;2023-11-21T08:35:45;96573.28;;;6.23;95.85
78890;BME280;68279;48.964;14.502;2023-11-21T08:38:11;96575.69;;;6.30;95.64
78890;BME280;68279;48.964;14.502;2023-11-21T08:40:37;96575.41;;;6.27;95.47
78890;BME280;68279;48.964;14.502;2023-11-21T08:43:03;96575.69;;;6.30;96.25
78890;BME280;68279;48.964;14.502;2023-11-21T08:45:33;96577.84;;;6.38;96.48
78890;BME280;68279;48.964;14.502;2023-11-21T08:48:02;96580.25;;;6.45;97.03
78890;BME280;68279;48.964;14.502;2023-11-21T08:50:28;96578.38;;;6.45;96.62
78890;BME280;68279;48.964;14.502;2023-11-21T11:34:30;96595.16;;;8.36;88.72
78890;BME280;68279;48.964;14.502;2023-11-21T11:37:07;96588.78;;;8.32;86.94
78890;BME280;68279;48.964;14.502;2023-11-21T11:39:41;96586.69;;;8.24;85.94
78890;BME280;68279;48.964;14.502;2023-11-21T11:42:12;96589.81;;;8.41;86.02
78890;BME280;68279;48.964;14.502;2023-11-21T11:47:32;96574.75;;;8.61;84.49
78890;BME280;68279;48.964;14.502;2023-11-21T11:50:05;96586.59;;;8.78;82.95
78890;BME280;68279;48.964;14.502;2023-11-21T11:52:45;96586.56;;;8.49;83.12
78890;BME280;68279;48.964;14.502;2023-11-21T11:55:15;96586.22;;;8.56;83.91
78890;BME280;68279;48.964;14.502;2023-11-21T11:57:46;96584.91;;;8.59;84.59
78890;BME280;68279;48.964;14.502;2023-11-21T12:00:15;96572.59;;;8.63;83.63
78890;BME280;68279;48.964;14.502;2023-11-21T12:02:55;96572.75;;;8.42;82.55
78890;BME280;68279;48.964;14.502;2023-11-21T12:05:22;96578.91;;;8.33;83.07
78890;BME280;68279;48.964;14.502;2023-11-21T12:07:56;96580.78;;;8.32;84.11
78890;BME280;68279;48.964;14.502;2023-11-21T12:10:27;96585.63;;;8.25;84.09
78890;BME280;68279;48.964;14.502;2023-11-21T12:12:58;96584.81;;;8.24;83.80
78890;BME280;68279;48.964;14.502;2023-11-21T12:15:25;96601.03;;;8.33;84.00
78890;BME280;68279;48.964;14.502;2023-11-21T12:17:51;96591.72;;;8.31;83.50
78890;BME280;68279;48.964;14.502;2023-11-21T12:20:22;96592.34;;;8.57;83.70
78890;BME280;68279;48.964;14.502;2023-11-21T12:22:52;96598.34;;;8.77;84.02
78890;BME280;68279;48.964;14.502;2023-11-21T12:25:38;96585.94;;;8.63;81.92
78890;BME280;68279;48.964;14.502;2023-11-21T12:28:05;96589.63;;;8.67;82.23
78890;BME280;68279;48.964;14.502;2023-11-21T12:30:35;96594.00;;;8.87;82.69
78890;BME280;68279;48.964;14.502;2023-11-21T12:33:03;96588.84;;;9.24;81.82
78890;BME280;68279;48.964;14.502;2023-11-21T12:35:30;96583.94;;;10.27;77.02
78890;BME280;68279;48.964;14.502;2023-11-21T12:37:59;96592.00;;;10.78;74.40
78890;BME280;68279;48.964;14.502;2023-11-21T12:40:26;96586.66;;;10.60;73.49
78890;BME280;68279;48.964;14.502;2023-11-21T12:42:53;96586.84;;;9.64;75.89
78890;BME280;68279;48.964;14.502;2023-11-21T12:47:50;96584.72;;;8.84;81.51
78890;BME280;68279;48.964;14.502;2023-11-21T12:50:23;96587.13;;;8.80;81.03
78890;BME280;68279;48.964;14.502;2023-11-21T12:52:51;96590.19;;;8.64;81.82
78890;BME280;68279;48.964;14.502;2023-11-21T12:55:21;96581.91;;;8.65;83.85
78890;BME280;68279;48.964;14.502;2023-11-21T12:57:55;96588.84;;;8.66;82.75
78890;BME280;68279;48.964;14.502;2023-11-21T13:00:28;96590.19;;;8.64;83.54
78890;BME280;68279;48.964;14.502;2023-11-21T13:02:56;96592.72;;;8.79;82.61
78890;BME280;68279;48.964;14.502;2023-11-21T13:05:32;96598.94;;;8.69;80.15
78890;BME280;68279;48.964;14.502;2023-11-21T13:08:02;96596.44;;;8.44;80.92
78890;BME280;68279;48.964;14.502;2023-11-21T13:10:31;96601.19;;;8.57;81.02
78890;BME280;68279;48.964;14.502;2023-11-21T13:12:58;96600.75;;;8.40;81.58
78890;BME280;68279;48.964;14.502;2023-11-21T13:15:27;96598.88;;;8.40;82.79
78890;BME280;68279;48.964;14.502;2023-11-21T13:17:54;96602.28;;;8.46;82.71
78890;BME280;68279;48.964;14.502;2023-11-21T13:20:21;96603.13;;;8.41;82.68
78890;BME280;68279;48.964;14.502;2023-11-21T13:22:51;96599.09;;;8.49;83.04
78890;BME280;68279;48.964;14.502;2023-11-21T13:25:23;96613.53;;;8.43;80.95
78890;BME280;68279;48.964;14.502;2023-11-21T13:27:49;96602.09;;;8.37;81.27
78890;BME280;68279;48.964;14.502;2023-11-21T13:30:16;96606.94;;;8.25;81.90
78890;BME280;68279;48.964;14.502;2023-11-21T13:32:43;96608.22;;;8.33;81.72
78890;BME280;68279;48.964;14.502;2023-11-21T13:35:10;96611.69;;;8.28;82.57
78890;BME280;68279;48.964;14.502;2023-11-21T13:37:54;96612.25;;;8.25;82.35
78890;BME280;68279;48.964;14.502;2023-11-21T13:40:22;96620.75;;;8.27;82.65
78890;BME280;68279;48.964;14.502;2023-11-21T13:42:55;96610.16;;;8.22;83.01
78890;BME280;68279;48.964;14.502;2023-11-21T13:45:23;96622.66;;;8.21;82.88
78890;BME280;68279;48.964;14.502;2023-11-21T13:47:50;96624.28;;;8.17;81.69
78890;BME280;68279;48.964;14.502;2023-11-21T13:50:19;96624.00;;;8.19;82.34
78890;BME280;68279;48.964;14.502;2023-11-21T13:52:51;96622.47;;;8.08;82.42
78890;BME280;68279;48.964;14.502;2023-11-21T13:55:19;96630.75;;;8.01;83.13
78890;BME280;68279;48.964;14.502;2023-11-21T13:57:44;96624.91;;;7.99;83.43
78890;BME280;68279;48.964;14.502;2023-11-21T14:00:15;96628.97;;;7.86;85.91
78890;BME280;68279;48.964;14.502;2023-11-21T14:02:59;96640.75;;;7.60;87.84
78890;BME280;68279;48.964;14.502;2023-11-21T14:05:27;96638.91;;;7.45;87.59
78890;BME280;68279;48.964;14.502;2023-11-21T14:07:57;96644.00;;;7.11;89.24
78890;BME280;68279;48.964;14.502;2023-11-21T14:10:29;96637.91;;;6.95;94.00
78890;BME280;68279;48.964;14.502;2023-11-21T14:13:03;96648.53;;;6.80;94.53
78890;BME280;68279;48.964;14.502;2023-11-21T14:15:30;96643.47;;;6.68;95.69
78890;BME280;68279;48.964;14.502;2023-11-21T14:17:56;96648.25;;;6.61;96.44
78890;BME280;68279;48.964;14.502;2023-11-21T14:20:22;96645.06;;;6.64;96.13
78890;BME280;68279;48.964;14.502;2023-11-21T14:22:47;96651.97;;;6.70;94.97
78890;BME280;68279;48.964;14.502;2023-11-21T14:25:13;96653.56;;;6.71;96.52
78890;BME280;68279;48.964;14.502;2023-11-21T14:27:39;96652.00;;;6.75;96.57
78890;BME280;68279;48.964;14.502;2023-11-21T14:30:06;96650.41;;;6.74;96.62
78890;BME280;68279;48.964;14.502;2023-11-21T14:32:31;96649.34;;;6.75;97.51
78890;BME280;68279;48.964;14.502;2023-11-21T14:34:57;96646.13;;;6.78;97.33
78890;BME280;68279;48.964;14.502;2023-11-21T14:37:23;96656.50;;;6.75;98.14
78890;BME280;68279;48.964;14.502;2023-11-21T14:39:49;96656.50;;;6.75;98.65
78890;BME280;68279;48.964;14.502;2023-11-21T14:42:15;96650.38;;;6.69;98.47
78890;BME280;68279;48.964;14.502;2023-11-21T14:44:41;96655.41;;;6.71;97.56
78890;BME280;68279;48.964;14.502;2023-11-21T14:47:08;96653.56;;;6.61;97.51
78890;BME280;68279;48.964;14.502;2023-11-21T14:49:43;96654.88;;;6.53;97.67
78890;BME280;68279;48.964;14.502;2023-11-21T14:52:32;96654.06;;;6.43;98.66
78890;BME280;68279;48.964;14.502;2023-11-21T14:55:04;96660.66;;;6.35;99.17
78890;BME280;68279;48.964;14.502;2023-11-21T14:57:48;96655.66;;;6.44;97.82
78890;BME280;68279;48.964;14.502;2023-11-21T15:00:17;96656.44;;;6.39;98.28
78890;BME280;68279;48.964;14.502;2023-11-21T15:03:01;96669.41;;;6.25;99.33
78890;BME280;68279;48.964;14.502;2023-11-21T15:05:27;96665.97;;;6.25;99.26
78890;BME280;68279;48.964;14.502;2023-11-21T15:07:54;96672.56;;;6.12;100.00
78890;BME280;68279;48.964;14.502;2023-11-21T15:10:22;96674.66;;;6.05;100.00
78890;BME280;68279;48.964;14.502;2023-11-21T15:13:08;96664.00;;;6.00;100.00
78890;BME280;68279;48.964;14.502;2023-11-21T15:15:36;96671.44;;;5.93;100.00
78890;BME280;68279;48.964;14.502;2023-11-21T15:18:03;96669.72;;;5.77;100.00
78890;BME280;68279;48.964;14.502;2023-11-21T15:20:28;96670.47;;;5.67;100.00
78890;BME280;68279;48.964;14.502;2023-11-21T15:22:55;96664.28;;;5.56;100.00
78890;BME280;68279;48.964;14.502;2023-11-21T15:25:21;96674.03;;;5.40;100.00
78890;BME280;68279;48.964;14.502;2023-11-21T15:27:46;96672.59;;;5.28;100.00
78890;BME280;68279;48.964;14.502;2023-11-21T15:30:18;96686.91;;;5.22;100.00
78890;BME280;68279;48.964;14.502;2023-11-21T15:32:48;96683.00;;;4.97;100.00
78890;BME280;68279;48.964;14.502;2023-11-21T15:35:13;96690.16;;;4.70;100.00
78890;BME280;68279;48.964;14.502;2023-11-21T15:37:40;96689.47;;;4.52;100.00
78890;BME280;68279;48.964;14.502;2023-11-21T15:40:06;96695.53;;;4.26;100.00
78890;BME280;68279;48.964;14.502;2023-11-21T15:42:34;96695.53;;;4.26;100.00